Time;durP1;ratioP1;P1;durP2;ratioP2;P2;SDS_P1;SDS_P2;PMS_P1;PMS_P2;Temp;Humidity;BMP_temperature;BMP_pressure;BME280_temperature;BME280_humidity;BME280_pressure;Samples;Min_cycle;Max_cycle;Signal;HPM_P1;HPM_P2
2023/10/22 00:02:21;;;;;;;49.08;23.45;;;;;;;;;;6254231;28;20359;-64
2023/10/22 00:05:22;;;;;;;50.63;22.67;;;;;;;;;;6252076;28;20055;-63
2023/10/22 00:08:22;;;;;;;57.28;22.13;;;;;;;;;;6250980;28;20045;-65
2023/10/22 00:11:23;;;;;;;52.85;23.92;;;;;;;;;;6252637;28;20049;-64
2023/10/22 00:14:24;;;;;;;55.20;26.20;;;;;;;;;;6252364;28;20111;-64
2023/10/22 00:17:24;;;;;;;62.20;32.35;;;;;;;;;;6253396;28;20045;-64
2023/10/22 00:20:27;;;;;;;72.18;32.45;;;;;;;;;;6250011;28;20614;-64
2023/10/22 00:23:27;;;;;;;61.25;28.60;;;;;;;;;;6252062;28;20396;-63
2023/10/22 00:26:28;;;;;;;68.00;34.90;;;;;;;;;;6251023;28;20049;-64
2023/10/22 00:29:28;;;;;;;59.35;29.95;;;;;;;;;;6245981;28;20048;-64
2023/10/22 00:32:29;;;;;;;55.83;25.67;;;;;;;;;;6253016;28;20128;-65
2023/10/22 00:35:30;;;;;;;62.10;29.13;;;;;;;;;;6250482;28;20057;-63
2023/10/22 00:38:31;;;;;;;68.18;30.83;;;;;;;;;;6251105;28;20143;-64
2023/10/22 00:41:31;;;;;;;56.00;28.80;;;;;;;;;;6248346;28;20056;-64
2023/10/22 00:44:32;;;;;;;55.50;26.48;;;;;;;;;;6252564;28;20382;-65
2023/10/22 00:47:33;;;;;;;45.75;23.17;;;;;;;;;;6254031;28;20056;-64
2023/10/22 00:50:34;;;;;;;47.42;28.08;;;;;;;;;;6248739;28;20053;-65
2023/10/22 00:53:35;;;;;;;49.58;23.25;;;;;;;;;;6253626;28;20053;-64
2023/10/22 00:56:36;;;;;;;57.38;29.17;;;;;;;;;;6249260;28;20061;-64
2023/10/22 00:59:37;;;;;;;70.13;41.25;;;;;;;;;;6230540;28;20537;-62
2023/10/22 01:02:37;;;;;;;61.38;38.30;;;;;;;;;;6252441;28;20518;-64
2023/10/22 01:05:38;;;;;;;46.75;25.60;;;;;;;;;;6252074;28;20381;-65
2023/10/22 01:08:39;;;;;;;42.43;22.97;;;;;;;;;;6248305;28;20537;-64
2023/10/22 01:11:59;;;;;;;40.55;19.75;;;;;;;;;;6255227;28;20055;-64
2023/10/22 01:15:00;;;;;;;41.33;20.27;;;;;;;;;;6256600;28;20053;-64
2023/10/22 01:18:02;;;;;;;46.65;23.85;;;;;;;;;;6256343;28;20047;-63
2023/10/22 01:21:05;;;;;;;43.85;23.55;;;;;;;;;;6254870;28;20167;-64
2023/10/22 01:24:06;;;;;;;43.40;20.95;;;;;;;;;;6256309;28;20120;-64
2023/10/22 01:27:07;;;;;;;34.97;19.55;;;;;;;;;;6239308;28;20049;-65
2023/10/22 01:30:09;;;;;;;37.10;19.05;;;;;;;;;;6253422;28;20072;-64
2023/10/22 01:33:10;;;;;;;;;;;;;;;;;;6258117;28;20126;-64
2023/10/22 01:36:10;;;;;;;35.42;19.65;;;;;;;;;;6254237;28;19928;-64
2023/10/22 01:39:14;;;;;;;29.25;15.65;;;;;;;;;;6253269;28;20049;-64
2023/10/22 01:42:15;;;;;;;27.02;13.50;;;;;;;;;;6257164;28;20499;-64
2023/10/22 01:45:16;;;;;;;24.45;13.15;;;;;;;;;;6256924;28;20470;-65
2023/10/22 01:48:16;;;;;;;23.33;11.52;;;;;;;;;;6255653;28;20518;-64
2023/10/22 01:51:17;;;;;;;23.00;10.60;;;;;;;;;;6254925;28;20238;-65
2023/10/22 01:54:18;;;;;;;21.05;10.50;;;;;;;;;;6256702;28;20473;-64
2023/10/22 01:57:19;;;;;;;22.63;10.68;;;;;;;;;;6236820;28;20053;-63
2023/10/22 02:00:19;;;;;;;28.00;13.40;;;;;;;;;;6253330;28;20036;-63
2023/10/22 02:03:20;;;;;;;34.58;17.40;;;;;;;;;;6254224;28;20522;-64
2023/10/22 02:06:20;;;;;;;42.70;21.38;;;;;;;;;;6256927;28;20056;-63
2023/10/22 02:09:21;;;;;;;41.63;24.33;;;;;;;;;;6257032;28;20487;-63
2023/10/22 02:12:29;;;;;;;40.53;21.27;;;;;;;;;;6256814;28;20053;-64
2023/10/22 02:15:30;;;;;;;37.17;18.73;;;;;;;;;;6255394;28;20511;-63
2023/10/22 02:18:30;;;;;;;35.83;19.30;;;;;;;;;;6251872;28;20045;-64
2023/10/22 02:21:31;;;;;;;30.45;16.15;;;;;;;;;;6255555;28;20516;-64
2023/10/22 02:24:31;;;;;;;33.72;19.17;;;;;;;;;;6256312;28;20090;-62
2023/10/22 02:27:32;;;;;;;48.28;29.27;;;;;;;;;;6253307;28;20053;-64
2023/10/22 02:30:33;;;;;;;34.33;16.98;;;;;;;;;;6254287;28;20423;-63
2023/10/22 02:33:34;;;;;;;33.58;16.50;;;;;;;;;;6255629;28;20158;-64
2023/10/22 02:36:35;;;;;;;38.55;19.98;;;;;;;;;;6255463;28;20416;-64
2023/10/22 02:39:36;;;;;;;43.38;22.50;;;;;;;;;;6237656;28;20064;-64
2023/10/22 02:42:36;;;;;;;48.65;26.30;;;;;;;;;;6252706;28;20060;-63
2023/10/22 02:45:37;;;;;;;39.75;19.98;;;;;;;;;;6236987;28;20503;-63
2023/10/22 02:48:37;;;;;;;60.03;33.17;;;;;;;;;;6253074;28;20056;-63
2023/10/22 02:51:39;;;;;;;58.63;31.15;;;;;;;;;;6255426;28;20049;-64
2023/10/22 02:54:39;;;;;;;40.28;19.30;;;;;;;;;;6254440;28;20100;-64
2023/10/22 02:57:40;;;;;;;39.42;20.52;;;;;;;;;;6253476;28;20069;-65
2023/10/22 03:00:41;;;;;;;44.33;21.38;;;;;;;;;;6254453;28;20041;-64
2023/10/22 03:03:42;;;;;;;64.30;35.67;;;;;;;;;;6254328;28;20541;-64
2023/10/22 03:06:43;;;;;;;50.67;27.45;;;;;;;;;;6253781;28;20048;-64
2023/10/22 03:09:43;;;;;;;50.47;26.02;;;;;;;;;;6252188;28;20210;-63
2023/10/22 03:12:44;;;;;;;52.97;26.70;;;;;;;;;;6253926;28;20048;-66
2023/10/22 03:15:45;;;;;;;57.15;26.45;;;;;;;;;;6246440;28;20076;-64
2023/10/22 03:18:47;;;;;;;47.20;23.90;;;;;;;;;;6258774;28;20492;-64
2023/10/22 03:21:47;;;;;;;39.58;21.33;;;;;;;;;;6243943;28;20439;-63
2023/10/22 03:24:49;;;;;;;44.03;22.13;;;;;;;;;;6242254;28;20103;-64
2023/10/22 03:27:50;;;;;;;;;;;;;;;;;;6241340;28;20049;-65
2023/10/22 03:30:50;;;;;;;44.10;20.15;;;;;;;;;;6241910;28;19931;-63
2023/10/22 03:33:51;;;;;;;43.40;20.70;;;;;;;;;;6242564;28;20120;-65
2023/10/22 03:36:51;;;;;;;41.20;20.23;;;;;;;;;;6242177;28;20050;-64
2023/10/22 03:39:52;;;;;;;41.80;19.83;;;;;;;;;;6242435;28;20049;-64
2023/10/22 03:42:52;;;;;;;34.55;18.52;;;;;;;;;;6242228;28;20068;-64
2023/10/22 03:45:55;;;;;;;40.08;18.45;;;;;;;;;;6241673;28;20049;-66
2023/10/22 03:48:57;;;;;;;;;;;;;;;;;;6242797;28;20045;-65
2023/10/22 03:51:58;;;;;;;36.40;17.75;;;;;;;;;;6241929;28;19925;-65
2023/10/22 03:54:59;;;;;;;41.20;18.02;;;;;;;;;;6241968;28;20072;-64
2023/10/22 03:58:00;;;;;;;45.40;18.63;;;;;;;;;;6242241;28;20046;-64
2023/10/22 04:01:00;;;;;;;45.72;22.23;;;;;;;;;;6243014;28;20045;-64
2023/10/22 04:04:01;;;;;;;51.92;24.70;;;;;;;;;;6242522;28;20049;-64
2023/10/22 04:07:03;;;;;;;59.95;29.52;;;;;;;;;;6239645;28;20464;-64
2023/10/22 04:10:09;;;;;;;43.88;22.33;;;;;;;;;;6239709;28;20140;-64
2023/10/22 04:13:10;;;;;;;47.85;22.88;;;;;;;;;;6241202;28;20073;-65
2023/10/22 04:16:17;;;;;;;44.80;22.65;;;;;;;;;;6242729;28;20053;-65
2023/10/22 04:19:17;;;;;;;48.78;22.23;;;;;;;;;;6242353;28;20042;-65
2023/10/22 04:22:18;;;;;;;43.90;22.20;;;;;;;;;;6239754;28;20076;-65
2023/10/22 04:25:19;;;;;;;55.42;24.25;;;;;;;;;;6241731;28;20050;-63
2023/10/22 04:28:19;;;;;;;59.58;28.10;;;;;;;;;;6241377;28;20054;-65
2023/10/22 04:31:20;;;;;;;64.93;29.55;;;;;;;;;;6242090;28;20111;-64
2023/10/22 04:34:21;;;;;;;66.40;30.42;;;;;;;;;;6240774;28;20047;-65
2023/10/22 04:37:23;;;;;;;71.32;29.90;;;;;;;;;;6242285;28;20065;-65
2023/10/22 04:40:26;;;;;;;65.65;27.92;;;;;;;;;;6242212;28;20448;-65
2023/10/22 04:43:30;;;;;;;;;;;;;;;;;;6241991;28;20160;-64
2023/10/22 04:46:30;;;;;;;54.80;23.65;;;;;;;;;;6242706;28;19929;-64
2023/10/22 04:49:31;;;;;;;61.25;29.17;;;;;;;;;;6243379;28;20041;-65
2023/10/22 04:52:33;;;;;;;68.45;34.45;;;;;;;;;;6246863;28;20099;-63
2023/10/22 04:55:34;;;;;;;72.63;35.88;;;;;;;;;;6247136;28;20084;-65
2023/10/22 04:58:35;;;;;;;88.78;47.58;;;;;;;;;;6245638;28;20068;-65
2023/10/22 05:01:35;;;;;;;110.30;56.40;;;;;;;;;;6246029;28;20123;-64
2023/10/22 05:04:36;;;;;;;84.07;44.40;;;;;;;;;;6246598;28;20047;-64
2023/10/22 05:07:37;;;;;;;56.08;25.25;;;;;;;;;;6245235;28;20061;-65
2023/10/22 05:10:39;;;;;;;59.72;24.50;;;;;;;;;;6245676;28;20137;-64
2023/10/22 05:13:39;;;;;;;67.47;24.90;;;;;;;;;;6246829;28;20049;-63
2023/10/22 05:16:40;;;;;;;48.65;21.10;;;;;;;;;;6245552;28;20136;-64
2023/10/22 05:19:40;;;;;;;50.88;22.40;;;;;;;;;;6243592;28;20049;-64
2023/10/22 05:22:44;;;;;;;50.45;23.73;;;;;;;;;;6244527;28;20045;-63
2023/10/22 05:25:44;;;;;;;60.80;28.45;;;;;;;;;;6244400;28;20049;-65
2023/10/22 05:28:45;;;;;;;46.92;23.10;;;;;;;;;;6244573;28;20056;-64
2023/10/22 05:31:45;;;;;;;50.88;24.50;;;;;;;;;;6245022;28;20431;-65
2023/10/22 05:34:46;;;;;;;47.97;21.83;;;;;;;;;;6244110;28;20965;-65
2023/10/22 05:37:49;;;;;;;61.50;31.23;;;;;;;;;;6245618;28;20045;-64
2023/10/22 05:40:49;;;;;;;65.15;29.70;;;;;;;;;;6245520;28;20041;-65
2023/10/22 05:43:52;;;;;;;85.65;39.25;;;;;;;;;;6246345;28;20061;-65
2023/10/22 05:46:52;;;;;;;69.88;32.28;;;;;;;;;;6244701;28;20522;-65
2023/10/22 05:49:53;;;;;;;52.25;24.77;;;;;;;;;;6245193;28;20057;-64
2023/10/22 05:52:53;;;;;;;48.10;22.27;;;;;;;;;;6260824;28;20128;-64
2023/10/22 05:55:58;;;;;;;59.42;24.27;;;;;;;;;;6246805;28;20045;-65
2023/10/22 05:58:59;;;;;;;56.80;24.05;;;;;;;;;;6244489;28;20085;-65
2023/10/22 06:01:59;;;;;;;46.80;19.73;;;;;;;;;;6244748;28;20107;-64
2023/10/22 06:05:00;;;;;;;53.70;25.42;;;;;;;;;;6247733;28;20081;-64
2023/10/22 06:08:01;;;;;;;53.28;28.27;;;;;;;;;;6245076;28;20049;-65
2023/10/22 06:11:05;;;;;;;68.80;35.00;;;;;;;;;;6248289;28;20072;-65
2023/10/22 06:14:05;;;;;;;72.60;38.72;;;;;;;;;;6256642;28;20136;-64
2023/10/22 06:17:06;;;;;;;70.37;31.33;;;;;;;;;;6253987;28;20040;-65
2023/10/22 06:20:07;;;;;;;64.97;27.77;;;;;;;;;;6242346;28;20073;-65
2023/10/22 06:23:09;;;;;;;55.33;23.60;;;;;;;;;;6243051;28;20048;-65
2023/10/22 06:26:11;;;;;;;50.10;20.80;;;;;;;;;;6243942;28;20121;-65
2023/10/22 06:29:11;;;;;;;52.40;21.42;;;;;;;;;;6241513;28;20049;-64
2023/10/22 06:32:12;;;;;;;56.38;22.20;;;;;;;;;;6244673;28;20041;-65
2023/10/22 06:35:12;;;;;;;60.15;23.92;;;;;;;;;;6243826;28;20095;-65
2023/10/22 06:38:13;;;;;;;103.70;64.63;;;;;;;;;;6265795;28;20052;-67
2023/10/22 06:41:17;;;;;;;64.45;25.40;;;;;;;;;;6260121;28;20049;-63
2023/10/22 06:44:18;;;;;;;69.30;27.38;;;;;;;;;;6255778;28;20041;-65
2023/10/22 06:47:18;;;;;;;66.45;26.50;;;;;;;;;;6261008;28;20625;-64
2023/10/22 06:50:19;;;;;;;65.03;27.27;;;;;;;;;;6266750;28;20056;-63
2023/10/22 06:53:20;;;;;;;76.70;30.77;;;;;;;;;;6266009;28;20132;-65
2023/10/22 06:56:20;;;;;;;75.18;26.88;;;;;;;;;;6252181;28;20396;-65
2023/10/22 06:59:21;;;;;;;66.18;24.50;;;;;;;;;;6265059;28;20135;-64
2023/10/22 07:02:22;;;;;;;88.15;31.70;;;;;;;;;;6266606;28;20056;-65
2023/10/22 07:05:23;;;;;;;84.07;33.28;;;;;;;;;;6266351;28;20051;-65
2023/10/22 07:08:24;;;;;;;88.57;33.78;;;;;;;;;;6266494;28;20471;-65
2023/10/22 07:11:24;;;;;;;74.93;29.60;;;;;;;;;;6265014;28;20122;-65
2023/10/22 07:14:26;;;;;;;132.02;43.85;;;;;;;;;;6266554;28;20045;-65
2023/10/22 07:17:27;;;;;;;225.95;72.05;;;;;;;;;;6265603;28;20440;-65
2023/10/22 07:20:28;;;;;;;197.40;63.00;;;;;;;;;;6266146;28;20132;-65
2023/10/22 07:23:31;;;;;;;84.88;29.95;;;;;;;;;;6266677;28;20237;-65
2023/10/22 07:26:32;;;;;;;63.25;23.23;;;;;;;;;;6265551;28;20041;-66
2023/10/22 07:29:32;;;;;;;53.27;20.80;;;;;;;;;;6265477;28;20049;-65
2023/10/22 07:32:33;;;;;;;46.08;19.00;;;;;;;;;;6266840;28;20049;-65
2023/10/22 07:35:35;;;;;;;39.40;15.60;;;;;;;;;;6265548;28;20049;-64
2023/10/22 07:38:38;;;;;;;51.20;18.48;;;;;;;;;;6265193;28;20810;-66
2023/10/22 07:41:38;;;;;;;46.38;19.48;;;;;;;;;;6260575;28;20059;-65
2023/10/22 07:44:39;;;;;;;42.63;16.90;;;;;;;;;;6254925;28;20041;-64
2023/10/22 07:47:40;;;;;;;36.88;14.88;;;;;;;;;;6258085;28;20104;-64
2023/10/22 07:50:40;;;;;;;34.65;14.15;;;;;;;;;;6249104;28;20041;-64
2023/10/22 07:53:42;;;;;;;31.92;13.63;;;;;;;;;;6256933;28;20399;-64
2023/10/22 07:56:42;;;;;;;49.60;23.40;;;;;;;;;;6256167;28;20053;-64
2023/10/22 07:59:43;;;;;;;38.50;17.70;;;;;;;;;;6256079;28;20056;-64
2023/10/22 08:02:44;;;;;;;29.15;12.73;;;;;;;;;;6256563;28;20090;-65
2023/10/22 08:05:44;;;;;;;30.25;13.38;;;;;;;;;;6251901;28;20492;-64
2023/10/22 08:08:45;;;;;;;68.07;26.67;;;;;;;;;;6249993;28;20053;-64
2023/10/22 08:11:46;;;;;;;86.90;32.20;;;;;;;;;;6246621;28;20067;-64
2023/10/22 08:14:46;;;;;;;82.47;29.67;;;;;;;;;;6244895;28;20049;-64
2023/10/22 08:17:47;;;;;;;60.78;24.60;;;;;;;;;;6251357;28;20512;-64
2023/10/22 08:20:48;;;;;;;43.88;17.75;;;;;;;;;;6246190;28;20091;-64
2023/10/22 08:23:48;;;;;;;36.47;16.15;;;;;;;;;;6254825;28;20053;-64
2023/10/22 08:26:49;;;;;;;37.20;16.77;;;;;;;;;;6259287;28;20053;-64
2023/10/22 08:29:50;;;;;;;34.58;15.88;;;;;;;;;;6253843;28;20059;-64
2023/10/22 08:32:51;;;;;;;33.78;15.25;;;;;;;;;;6257563;28;20049;-64
2023/10/22 08:35:52;;;;;;;31.05;14.15;;;;;;;;;;6257663;28;20508;-64
2023/10/22 08:38:52;;;;;;;33.95;13.55;;;;;;;;;;6259423;28;20053;-64
2023/10/22 08:41:58;;;;;;;32.75;13.52;;;;;;;;;;6261753;28;20061;-64
2023/10/22 08:44:59;;;;;;;29.70;12.93;;;;;;;;;;6254372;28;20041;-65
2023/10/22 08:48:05;;;;;;;34.42;14.55;;;;;;;;;;6254051;28;20131;-65
2023/10/22 08:51:07;;;;;;;30.30;12.85;;;;;;;;;;6264920;28;20138;-64
2023/10/22 08:54:10;;;;;;;28.83;13.75;;;;;;;;;;6259833;28;20045;-65
2023/10/22 08:57:10;;;;;;;28.80;12.77;;;;;;;;;;6263671;28;20568;-64
2023/10/22 09:00:13;;;;;;;24.83;11.65;;;;;;;;;;6263892;28;20052;-63
2023/10/22 09:03:14;;;;;;;29.02;13.43;;;;;;;;;;6263668;28;20051;-63
2023/10/22 09:06:15;;;;;;;;;;;;;;;;;;6266392;28;20158;-63
2023/10/22 09:09:30;;;;;;;29.85;12.55;;;;;;;;;;6266381;28;19925;-63
2023/10/22 09:12:30;;;;;;;29.45;12.50;;;;;;;;;;6258415;28;20053;-63
2023/10/22 09:15:39;;;;;;;24.35;11.27;;;;;;;;;;6268745;28;20059;-65
2023/10/22 09:18:44;;;;;;;27.85;12.05;;;;;;;;;;6259723;28;20102;-64
2023/10/22 09:21:45;;;;;;;25.13;10.63;;;;;;;;;;6259953;28;20042;-62
2023/10/22 09:25:00;;;;;;;22.98;10.10;;;;;;;;;;6265138;28;20041;-64
2023/10/22 09:28:27;;;;;;;19.52;10.10;;;;;;;;;;6258795;28;20586;-63
2023/10/22 09:31:28;;;;;;;24.58;10.15;;;;;;;;;;6265948;28;20071;-64
2023/10/22 09:34:33;;;;;;;18.80;9.75;;;;;;;;;;6243357;28;20110;-62
2023/10/22 09:37:49;;;;;;;11.88;5.95;;;;;;;;;;6253979;28;20106;-63
2023/10/22 09:40:50;;;;;;;15.05;6.05;;;;;;;;;;6269111;28;20053;-63
2023/10/22 09:43:54;;;;;;;12.80;5.60;;;;;;;;;;6266515;28;20149;-65
2023/10/22 09:46:57;;;;;;;14.27;5.10;;;;;;;;;;6259445;28;20432;-63
2023/10/22 09:50:05;;;;;;;13.02;5.90;;;;;;;;;;6265640;28;20060;-64
2023/10/22 09:53:08;;;;;;;14.07;7.53;;;;;;;;;;6264079;28;20052;-62
2023/10/22 09:56:10;;;;;;;21.75;10.07;;;;;;;;;;6263294;28;20047;-65
2023/10/22 09:59:12;;;;;;;24.88;10.98;;;;;;;;;;6265884;28;20409;-67
2023/10/22 10:02:17;;;;;;;19.05;9.80;;;;;;;;;;6258231;28;20041;-64
2023/10/22 10:05:20;;;;;;;19.55;10.00;;;;;;;;;;6265381;28;20837;-64
2023/10/22 10:08:21;;;;;;;22.33;10.07;;;;;;;;;;6252374;28;20040;-65
2023/10/22 10:11:22;;;;;;;22.92;10.23;;;;;;;;;;6258370;28;20060;-64
2023/10/22 10:14:35;;;;;;;22.83;10.43;;;;;;;;;;6255469;28;20048;-64
2023/10/22 10:17:54;;;;;;;19.65;10.43;;;;;;;;;;6255512;28;20527;-64
2023/10/22 10:20:55;;;;;;;22.77;10.50;;;;;;;;;;6256767;28;20594;-64
2023/10/22 10:24:13;;;;;;;20.77;9.98;;;;;;;;;;6258108;28;20080;-63
2023/10/22 10:27:22;;;;;;;21.70;9.55;;;;;;;;;;6257959;28;20056;-66
2023/10/22 10:30:22;;;;;;;16.33;8.30;;;;;;;;;;6255423;28;20049;-64
2023/10/22 10:33:59;;;;;;;16.20;7.93;;;;;;;;;;6257043;28;20052;-62
2023/10/22 10:37:13;;;;;;;17.80;8.18;;;;;;;;;;6257576;28;20044;-65
2023/10/22 10:40:41;;;;;;;18.98;8.07;;;;;;;;;;6254719;28;20483;-65
2023/10/22 10:44:18;;;;;;;19.00;9.35;;;;;;;;;;6255827;28;20060;-64
2023/10/22 10:47:22;;;;;;;18.77;8.88;;;;;;;;;;6254484;28;20094;-64
2023/10/22 10:50:23;;;;;;;18.75;9.05;;;;;;;;;;6255195;28;20045;-62
2023/10/22 10:53:23;;;;;;;20.80;9.85;;;;;;;;;;6257177;28;20836;-64
2023/10/22 10:56:53;;;;;;;23.85;9.98;;;;;;;;;;6256709;28;20064;-64
2023/10/22 10:59:53;;;;;;;19.15;8.88;;;;;;;;;;6255109;28;20051;-63
2023/10/22 11:02:58;;;;;;;18.70;8.40;;;;;;;;;;6238108;28;20057;-62
2023/10/22 11:05:59;;;;;;;20.55;9.25;;;;;;;;;;6256783;28;20106;-62
2023/10/22 11:08:59;;;;;;;21.25;9.50;;;;;;;;;;6255339;28;20091;-62
2023/10/22 11:12:04;;;;;;;20.95;9.93;;;;;;;;;;6257915;28;20122;-62
2023/10/22 11:15:07;;;;;;;21.00;11.07;;;;;;;;;;6256079;28;20045;-61
2023/10/22 11:18:12;;;;;;;21.20;10.35;;;;;;;;;;6254169;28;20086;-61
2023/10/22 11:21:13;;;;;;;22.55;10.90;;;;;;;;;;6255062;28;20103;-62
2023/10/22 11:24:13;;;;;;;25.88;13.57;;;;;;;;;;6255712;28;20049;-61
2023/10/22 11:27:15;;;;;;;31.35;14.68;;;;;;;;;;6256391;28;20052;-62
2023/10/22 11:30:32;;;;;;;;;;;;;;;;;;6253510;28;20915;-62
2023/10/22 11:33:34;;;;;;;48.33;20.65;;;;;;;;;;6257630;28;20394;-62
2023/10/22 11:36:35;;;;;;;58.75;25.23;;;;;;;;;;6265513;28;20113;-61
2023/10/22 11:39:35;;;;;;;59.05;25.17;;;;;;;;;;6249644;28;20050;-62
2023/10/22 11:42:36;;;;;;;61.60;26.90;;;;;;;;;;6240226;28;20079;-62
2023/10/22 11:45:36;;;;;;;57.20;25.50;;;;;;;;;;6240709;28;20091;-62
2023/10/22 11:48:44;;;;;;;57.85;24.25;;;;;;;;;;6242670;28;20048;-62
2023/10/22 11:51:45;;;;;;;43.22;20.00;;;;;;;;;;6239861;28;20341;-62
2023/10/22 11:54:46;;;;;;;42.83;19.00;;;;;;;;;;6239154;28;20041;-62
2023/10/22 11:57:46;;;;;;;35.97;17.45;;;;;;;;;;6239948;28;20049;-62
2023/10/22 12:00:48;;;;;;;37.03;17.67;;;;;;;;;;6239503;28;20049;-62
2023/10/22 12:03:48;;;;;;;32.88;16.08;;;;;;;;;;6241847;28;20060;-62
2023/10/22 12:06:49;;;;;;;51.80;17.67;;;;;;;;;;6239533;28;20045;-62
2023/10/22 12:09:50;;;;;;;30.65;15.25;;;;;;;;;;6241462;28;20484;-63
2023/10/22 12:12:50;;;;;;;29.25;12.35;;;;;;;;;;6242990;28;20053;-62
2023/10/22 12:15:51;;;;;;;22.55;10.63;;;;;;;;;;6242384;28;20041;-62
2023/10/22 12:18:52;;;;;;;20.13;9.73;;;;;;;;;;6242044;28;20042;-61
2023/10/22 12:21:52;;;;;;;18.95;8.75;;;;;;;;;;6240650;28;20056;-62
2023/10/22 12:24:56;;;;;;;18.73;9.45;;;;;;;;;;6242089;28;20535;-62
2023/10/22 12:27:58;;;;;;;13.43;7.15;;;;;;;;;;6241019;28;20049;-62
2023/10/22 12:30:58;;;;;;;14.15;7.30;;;;;;;;;;6240767;28;20045;-62
2023/10/22 12:33:59;;;;;;;14.48;7.30;;;;;;;;;;6242649;28;20510;-62
2023/10/22 12:37:00;;;;;;;13.07;5.53;;;;;;;;;;6242070;28;20393;-62
2023/10/22 12:40:00;;;;;;;10.18;5.07;;;;;;;;;;6241340;28;20076;-62
2023/10/22 12:43:01;;;;;;;7.45;3.95;;;;;;;;;;6240031;28;20049;-62
2023/10/22 12:46:03;;;;;;;8.40;4.20;;;;;;;;;;6240496;28;20052;-62
2023/10/22 12:49:04;;;;;;;7.57;3.58;;;;;;;;;;6241095;28;20050;-62
2023/10/22 12:52:04;;;;;;;6.50;3.53;;;;;;;;;;6256838;28;20415;-61
2023/10/22 12:55:06;;;;;;;9.35;3.10;;;;;;;;;;6240708;28;20052;-61
2023/10/22 12:58:06;;;;;;;6.67;3.20;;;;;;;;;;6240859;28;20547;-61
2023/10/22 13:01:07;;;;;;;6.18;2.92;;;;;;;;;;6240696;28;20070;-61
2023/10/22 13:04:07;;;;;;;6.57;3.03;;;;;;;;;;6222543;28;20647;-61
2023/10/22 13:07:08;;;;;;;8.02;3.17;;;;;;;;;;6242430;28;20041;-61
2023/10/22 13:10:09;;;;;;;6.95;3.22;;;;;;;;;;6242486;28;20053;-61
2023/10/22 13:13:10;;;;;;;6.90;3.47;;;;;;;;;;6246697;28;20049;-61
2023/10/22 13:16:10;;;;;;;6.85;3.53;;;;;;;;;;6245139;28;20535;-62
2023/10/22 13:19:11;;;;;;;7.22;3.45;;;;;;;;;;6243462;28;20063;-62
2023/10/22 13:22:11;;;;;;;6.43;3.55;;;;;;;;;;6245816;28;20042;-62
2023/10/22 13:25:12;;;;;;;7.45;3.80;;;;;;;;;;6245257;28;20932;-62
2023/10/22 13:28:13;;;;;;;9.98;4.30;;;;;;;;;;6244822;28;20107;-62
2023/10/22 13:31:14;;;;;;;8.98;4.22;;;;;;;;;;6244967;28;20053;-61
2023/10/22 13:34:14;;;;;;;9.55;4.78;;;;;;;;;;6246905;28;20052;-61
2023/10/22 13:37:17;;;;;;;8.80;4.88;;;;;;;;;;6245692;28;20120;-61
2023/10/22 13:40:18;;;;;;;9.55;4.68;;;;;;;;;;6244618;28;20963;-61
2023/10/22 13:43:19;;;;;;;9.95;5.05;;;;;;;;;;6244520;28;20058;-62
2023/10/22 13:46:20;;;;;;;9.23;4.70;;;;;;;;;;6244718;28;20485;-61
2023/10/22 13:49:21;;;;;;;12.30;5.00;;;;;;;;;;6244980;28;20455;-62
2023/10/22 13:52:21;;;;;;;10.32;4.93;;;;;;;;;;6245150;28;20053;-62
2023/10/22 13:55:22;;;;;;;11.10;4.93;;;;;;;;;;6244962;28;20095;-62
2023/10/22 13:58:23;;;;;;;11.45;5.30;;;;;;;;;;6241261;28;20050;-61
2023/10/22 14:01:23;;;;;;;8.40;4.93;;;;;;;;;;6244786;28;20670;-62
2023/10/22 14:04:24;;;;;;;8.27;4.50;;;;;;;;;;6244845;28;20384;-61
2023/10/22 14:07:24;;;;;;;11.00;4.68;;;;;;;;;;6246445;28;20138;-61
2023/10/22 14:10:25;;;;;;;9.85;4.70;;;;;;;;;;6252361;28;20045;-61
2023/10/22 14:13:26;;;;;;;7.70;4.22;;;;;;;;;;6235613;28;20183;-62
2023/10/22 14:16:26;;;;;;;9.52;4.57;;;;;;;;;;6256321;28;20048;-62
2023/10/22 14:19:27;;;;;;;8.65;4.57;;;;;;;;;;6253138;28;20051;-62
2023/10/22 14:22:27;;;;;;;9.23;4.55;;;;;;;;;;6256313;28;20097;-62
2023/10/22 14:25:28;;;;;;;7.65;4.95;;;;;;;;;;6255791;28;20349;-62
2023/10/22 14:28:29;;;;;;;10.57;5.50;;;;;;;;;;6253474;28;20072;-62
2023/10/22 14:31:29;;;;;;;9.48;4.72;;;;;;;;;;6256268;28;20411;-60
2023/10/22 14:34:30;;;;;;;10.98;4.97;;;;;;;;;;6254653;28;20056;-62
2023/10/22 14:37:31;;;;;;;8.90;4.10;;;;;;;;;;6254203;28;20163;-63
2023/10/22 14:40:32;;;;;;;10.20;4.18;;;;;;;;;;6256953;28;20048;-65
2023/10/22 14:43:33;;;;;;;8.55;3.75;;;;;;;;;;6257693;28;20147;-65
2023/10/22 14:46:33;;;;;;;8.15;3.72;;;;;;;;;;6257642;28;20056;-65
2023/10/22 14:49:34;;;;;;;10.15;3.92;;;;;;;;;;6255357;28;20719;-64
2023/10/22 14:52:34;;;;;;;8.00;3.88;;;;;;;;;;6256847;28;20084;-67
2023/10/22 14:55:35;;;;;;;9.98;4.13;;;;;;;;;;6258037;28;20110;-66
2023/10/22 14:58:35;;;;;;;8.98;4.07;;;;;;;;;;6254527;28;20411;-65
2023/10/22 15:01:36;;;;;;;11.35;4.05;;;;;;;;;;6257467;28;20667;-65
2023/10/22 15:04:37;;;;;;;9.43;5.22;;;;;;;;;;6256979;28;20061;-65
2023/10/22 15:07:38;;;;;;;12.38;5.00;;;;;;;;;;6256198;28;20041;-64
2023/10/22 15:10:44;;;;;;;8.90;4.70;;;;;;;;;;6254993;28;20041;-64
2023/10/22 15:13:45;;;;;;;9.43;4.55;;;;;;;;;;6253801;28;20051;-64
2023/10/22 15:16:46;;;;;;;11.38;4.82;;;;;;;;;;6254604;28;20048;-64
2023/10/22 15:19:46;;;;;;;7.65;4.25;;;;;;;;;;6252908;28;20041;-62
2023/10/22 15:22:47;;;;;;;10.27;4.38;;;;;;;;;;6254827;28;20052;-66
2023/10/22 15:25:50;;;;;;;10.75;3.95;;;;;;;;;;6255503;28;20080;-63
2023/10/22 15:28:52;;;;;;;7.72;4.22;;;;;;;;;;6252267;28;20152;-63
2023/10/22 15:31:52;;;;;;;12.40;4.20;;;;;;;;;;6252962;28;20462;-63
2023/10/22 15:34:53;;;;;;;9.13;4.72;;;;;;;;;;6253452;28;20053;-65
2023/10/22 15:37:55;;;;;;;10.68;4.60;;;;;;;;;;6251359;28;20459;-64
2023/10/22 15:41:00;;;;;;;11.45;4.60;;;;;;;;;;6254925;28;20087;-64
2023/10/22 15:44:00;;;;;;;9.20;3.45;;;;;;;;;;6255194;28;20125;-63
2023/10/22 15:47:02;;;;;;;9.65;3.53;;;;;;;;;;6254154;28;20138;-63
2023/10/22 15:50:03;;;;;;;10.73;4.13;;;;;;;;;;6252723;28;20098;-63
2023/10/22 15:53:04;;;;;;;7.20;3.60;;;;;;;;;;6254206;28;20053;-63
2023/10/22 15:56:06;;;;;;;9.00;3.57;;;;;;;;;;6253952;28;20468;-65
2023/10/22 15:59:06;;;;;;;8.27;3.33;;;;;;;;;;6251571;28;20056;-63
2023/10/22 16:02:07;;;;;;;12.00;3.88;;;;;;;;;;6251964;28;20438;-64
2023/10/22 16:05:10;;;;;;;11.00;3.92;;;;;;;;;;6253261;28;20053;-63
2023/10/22 16:08:10;;;;;;;10.23;4.20;;;;;;;;;;6251336;28;20051;-64
2023/10/22 16:11:11;;;;;;;9.25;3.42;;;;;;;;;;6252832;28;20415;-65
2023/10/22 16:14:12;;;;;;;10.02;3.95;;;;;;;;;;6253812;28;20385;-65
2023/10/22 16:17:13;;;;;;;9.27;3.35;;;;;;;;;;6251746;28;20139;-63
2023/10/22 16:20:14;;;;;;;8.98;3.33;;;;;;;;;;6253537;28;20045;-63
2023/10/22 16:23:15;;;;;;;9.57;3.65;;;;;;;;;;6254410;28;20538;-64
2023/10/22 16:26:16;;;;;;;10.98;3.90;;;;;;;;;;6254050;28;20396;-64
2023/10/22 16:29:16;;;;;;;10.05;3.60;;;;;;;;;;6251184;28;20511;-63
2023/10/22 16:32:17;;;;;;;11.07;3.85;;;;;;;;;;6254336;28;20037;-63
2023/10/22 16:35:17;;;;;;;10.73;3.67;;;;;;;;;;6254795;28;20061;-63
2023/10/22 16:38:19;;;;;;;11.52;4.03;;;;;;;;;;6250812;28;20179;-64
2023/10/22 16:41:20;;;;;;;9.77;4.65;;;;;;;;;;6236097;28;20572;-66
2023/10/22 16:44:23;;;;;;;14.23;5.80;;;;;;;;;;6239868;28;20586;-63
2023/10/22 16:47:24;;;;;;;15.60;5.22;;;;;;;;;;6255946;28;20230;-63
2023/10/22 16:50:26;;;;;;;13.32;5.28;;;;;;;;;;6257431;28;20503;-64
2023/10/22 16:53:26;;;;;;;14.70;5.78;;;;;;;;;;6240772;28;20119;-63
2023/10/22 16:56:27;;;;;;;18.92;6.05;;;;;;;;;;6258116;28;20938;-66
2023/10/22 16:59:27;;;;;;;17.92;6.78;;;;;;;;;;6255672;28;20049;-62
2023/10/22 17:02:28;;;;;;;14.13;6.18;;;;;;;;;;6257643;28;20508;-63
2023/10/22 17:05:28;;;;;;;14.13;6.18;;;;;;;;;;6257747;28;20119;-63
2023/10/22 17:08:29;;;;;;;15.82;6.57;;;;;;;;;;6257065;28;20080;-65
2023/10/22 17:11:30;;;;;;;14.32;6.72;;;;;;;;;;6256982;28;20052;-63
2023/10/22 17:14:31;;;;;;;21.15;6.80;;;;;;;;;;6258092;28;20057;-63
2023/10/22 17:17:34;;;;;;;19.55;7.53;;;;;;;;;;6255565;28;20056;-64
2023/10/22 17:20:39;;;;;;;18.90;8.23;;;;;;;;;;6256276;28;20084;-63
2023/10/22 17:23:39;;;;;;;19.70;8.43;;;;;;;;;;6257730;28;20126;-63
2023/10/22 17:26:40;;;;;;;24.48;9.15;;;;;;;;;;6257346;28;20399;-65
2023/10/22 17:29:41;;;;;;;22.27;8.93;;;;;;;;;;6254508;28;20049;-64
2023/10/22 17:32:41;;;;;;;21.60;8.98;;;;;;;;;;6256737;28;20526;-64
2023/10/22 17:35:52;;;;;;;25.67;9.48;;;;;;;;;;6257203;28;20049;-63
2023/10/22 17:38:53;;;;;;;28.30;9.93;;;;;;;;;;6254635;28;20065;-64
2023/10/22 17:41:54;;;;;;;27.98;10.88;;;;;;;;;;6256545;28;20115;-63
2023/10/22 17:44:55;;;;;;;27.85;10.05;;;;;;;;;;6257283;28;20147;-63
2023/10/22 17:47:55;;;;;;;26.83;9.93;;;;;;;;;;6254432;28;20558;-64
2023/10/22 17:51:00;;;;;;;27.27;10.38;;;;;;;;;;6242881;28;20167;-63